createdAt,value
2018-12-23T00:00:05.351Z,12.10
2018-12-23T00:02:31.607Z,12.00
2018-12-23T00:04:57.849Z,12.00
2018-12-23T00:07:24.097Z,12.10
2018-12-23T00:09:51.095Z,12.10
2018-12-23T00:12:17.332Z,12.10
2018-12-23T00:14:43.573Z,12.10
2018-12-23T00:17:09.892Z,12.10
2018-12-23T00:19:36.157Z,12.20
2018-12-23T00:22:03.163Z,12.10
2018-12-23T00:24:29.453Z,12.00
2018-12-23T00:26:56.686Z,12.00
2018-12-23T00:29:23.053Z,12.00
2018-12-23T00:31:49.320Z,12.00
2018-12-23T00:34:15.578Z,12.00
2018-12-23T00:36:41.833Z,12.00
2018-12-23T00:39:08.103Z,12.00
2018-12-23T00:41:36.633Z,12.00
2018-12-23T00:44:00.616Z,12.00
2018-12-23T00:46:27.217Z,12.10
2018-12-23T00:48:53.463Z,12.00
2018-12-23T00:51:19.696Z,11.90
2018-12-23T00:53:46.040Z,11.80
2018-12-23T00:56:12.263Z,11.80
2018-12-23T00:58:38.484Z,11.70
2018-12-23T01:01:05.504Z,11.70
2018-12-23T01:03:32.479Z,11.60
2018-12-23T01:05:58.724Z,11.60
2018-12-23T01:08:25.555Z,11.60
2018-12-23T01:10:51.809Z,11.60
2018-12-23T01:13:18.054Z,11.60
2018-12-23T01:15:44.312Z,11.70
2018-12-23T01:18:10.573Z,11.70
2018-12-23T01:20:37.058Z,11.70
2018-12-23T01:23:03.304Z,11.70
2018-12-23T01:25:30.540Z,11.80
2018-12-23T01:27:57.539Z,11.80
2018-12-23T01:30:23.795Z,11.80
2018-12-23T01:32:50.032Z,11.90
2018-12-23T01:35:17.029Z,11.90
2018-12-23T01:37:43.276Z,11.90
2018-12-23T01:40:09.524Z,11.90
2018-12-23T01:42:36.798Z,11.80
2018-12-23T01:45:03.848Z,11.80
2018-12-23T01:47:30.079Z,11.80
2018-12-23T01:49:56.364Z,11.80
2018-12-23T01:52:22.629Z,11.90
2018-12-23T01:54:48.881Z,11.70
2018-12-23T01:57:15.126Z,11.70
2018-12-23T01:59:41.327Z,11.80
2018-12-23T02:02:07.584Z,11.80
2018-12-23T02:04:33.860Z,11.70
2018-12-23T02:07:00.807Z,11.60
2018-12-23T02:09:27.793Z,11.60
2018-12-23T02:11:54.035Z,11.60
2018-12-23T02:14:20.253Z,11.50
2018-12-23T02:16:46.540Z,11.50
2018-12-23T02:19:12.839Z,11.60
2018-12-23T02:21:39.063Z,11.60
2018-12-23T02:24:05.291Z,11.60
2018-12-23T02:26:31.829Z,11.50
2018-12-23T02:28:58.072Z,11.50
2018-12-23T02:31:25.065Z,11.50
2018-12-23T02:33:51.303Z,11.50
2018-12-23T02:36:17.523Z,11.40
2018-12-23T02:38:43.724Z,11.40
2018-12-23T02:41:10.228Z,11.40
2018-12-23T02:43:36.441Z,11.60
2018-12-23T02:46:02.776Z,11.50
2018-12-23T02:48:29.016Z,11.50
2018-12-23T02:50:56.649Z,11.50
2018-12-23T02:53:23.623Z,11.50
2018-12-23T02:55:50.596Z,11.50
2018-12-23T02:58:17.506Z,11.50
2018-12-23T03:00:43.772Z,11.50
2018-12-23T03:03:10.024Z,11.60
2018-12-23T03:05:36.240Z,11.60
2018-12-23T03:08:02.821Z,11.60
2018-12-23T03:10:29.036Z,11.60
2018-12-23T03:12:56.220Z,11.50
2018-12-23T03:15:23.218Z,11.40
2018-12-23T03:17:50.227Z,11.40
2018-12-23T03:20:16.444Z,11.40
2018-12-23T03:22:42.685Z,11.30
2018-12-23T03:25:08.899Z,11.20
2018-12-23T03:27:35.147Z,11.10
2018-12-23T03:30:01.380Z,11.10
2018-12-23T03:32:27.609Z,11.10
2018-12-23T03:34:53.861Z,11.20
2018-12-23T03:37:20.093Z,11.40
2018-12-23T03:39:46.341Z,11.40
2018-12-23T03:42:13.424Z,11.50
2018-12-23T03:44:39.583Z,11.50
2018-12-23T03:47:06.040Z,11.50
2018-12-23T03:49:32.305Z,11.50
2018-12-23T03:51:58.561Z,11.40
2018-12-23T03:54:25.564Z,11.60
2018-12-23T03:56:51.791Z,11.50
2018-12-23T03:59:18.320Z,11.60
2018-12-23T04:01:45.321Z,11.50
2018-12-23T04:04:11.540Z,11.60
2018-12-23T04:06:37.772Z,11.50
2018-12-23T04:09:04.045Z,11.60
2018-12-23T04:11:31.048Z,11.50
2018-12-23T04:13:57.335Z,11.50
2018-12-23T04:16:23.572Z,11.40
2018-12-23T04:18:49.811Z,11.40
2018-12-23T04:21:16.048Z,11.50
2018-12-23T04:23:42.256Z,11.50
2018-12-23T04:26:08.483Z,11.60
2018-12-23T04:28:34.730Z,11.60
2018-12-23T04:31:00.939Z,11.60
2018-12-23T04:33:27.189Z,11.70
2018-12-23T04:35:54.163Z,11.60
2018-12-23T04:38:21.144Z,11.50
2018-12-23T04:40:47.381Z,11.50
2018-12-23T04:43:13.620Z,11.50
2018-12-23T04:45:39.904Z,11.50
2018-12-23T04:48:06.880Z,11.50
2018-12-23T04:50:33.088Z,11.50
2018-12-23T04:53:00.060Z,11.40
2018-12-23T04:55:26.316Z,11.40
2018-12-23T04:57:52.535Z,11.40
2018-12-23T05:00:18.765Z,11.30
2018-12-23T05:02:45.032Z,11.30
2018-12-23T05:05:11.987Z,11.30
2018-12-23T05:07:38.236Z,11.30
2018-12-23T05:10:04.481Z,11.30
2018-12-23T05:12:31.004Z,11.30
2018-12-23T05:14:57.313Z,11.30
2018-12-23T05:17:23.589Z,11.30
2018-12-23T05:19:49.819Z,11.30
2018-12-23T05:22:16.060Z,11.40
2018-12-23T05:24:42.303Z,11.40
2018-12-23T05:27:09.319Z,11.60
2018-12-23T05:29:35.570Z,11.60
2018-12-23T05:32:02.540Z,11.60
2018-12-23T05:34:28.751Z,11.60
2018-12-23T05:36:56.009Z,11.50
2018-12-23T05:39:23.016Z,11.50
2018-12-23T05:41:49.243Z,11.50
2018-12-23T05:44:15.973Z,11.40
2018-12-23T05:46:42.212Z,11.40
2018-12-23T05:49:08.460Z,11.50
2018-12-23T05:51:34.681Z,11.50
2018-12-23T05:54:00.908Z,11.40
2018-12-23T05:56:27.139Z,11.40
2018-12-23T05:58:53.388Z,11.40
2018-12-23T06:01:20.385Z,11.30
2018-12-23T06:03:46.627Z,11.30
2018-12-23T06:06:12.839Z,11.40
2018-12-23T06:08:39.068Z,11.40
2018-12-23T06:11:06.051Z,11.40
2018-12-23T06:13:33.026Z,11.50
2018-12-23T06:15:59.256Z,11.50
2018-12-23T06:18:25.461Z,11.50
2018-12-23T06:20:52.416Z,11.40
2018-12-23T06:23:18.667Z,11.40
2018-12-23T06:25:45.736Z,11.50
2018-12-23T06:28:11.969Z,11.40
2018-12-23T06:30:38.199Z,11.50
2018-12-23T06:33:04.453Z,11.50
2018-12-23T06:35:30.745Z,11.30
2018-12-23T06:37:56.951Z,11.30
2018-12-23T06:40:23.200Z,11.40
2018-12-23T06:42:49.418Z,11.40
2018-12-23T06:45:15.671Z,11.40
2018-12-23T06:47:41.924Z,11.50
2018-12-23T06:50:08.888Z,11.40
2018-12-23T06:52:35.133Z,11.40
2018-12-23T06:55:01.367Z,11.50
2018-12-23T06:57:27.624Z,11.50
2018-12-23T06:59:53.848Z,11.50
2018-12-23T07:02:20.087Z,11.40
2018-12-23T07:04:46.303Z,11.60
2018-12-23T07:07:18.565Z,11.50
2018-12-23T07:09:38.744Z,11.50
2018-12-23T07:12:04.984Z,11.60
2018-12-23T07:14:31.192Z,11.70
2018-12-23T07:16:57.419Z,11.70
2018-12-23T07:19:23.731Z,11.60
2018-12-23T07:21:49.976Z,11.50
2018-12-23T07:24:16.208Z,11.50
2018-12-23T07:26:43.690Z,11.60
2018-12-23T07:29:08.664Z,11.60
2018-12-23T07:31:34.884Z,11.60
2018-12-23T07:34:01.851Z,11.60
2018-12-23T07:36:28.152Z,11.60
2018-12-23T07:38:54.357Z,11.70
2018-12-23T07:41:20.592Z,11.70
2018-12-23T07:43:47.356Z,11.70
2018-12-23T07:46:13.612Z,11.60
2018-12-23T07:48:39.866Z,11.60
2018-12-23T07:51:06.075Z,11.70
2018-12-23T07:53:33.087Z,11.60
2018-12-23T07:56:00.265Z,11.60
2018-12-23T07:58:27.292Z,11.60
2018-12-23T08:00:53.504Z,11.60
2018-12-23T08:03:20.536Z,11.70
2018-12-23T08:05:46.744Z,11.70
2018-12-23T08:08:12.993Z,11.80
2018-12-23T08:10:39.316Z,11.70
2018-12-23T08:13:05.580Z,11.50
2018-12-23T08:15:31.830Z,11.50
2018-12-23T08:17:58.076Z,11.50
2018-12-23T08:20:24.316Z,11.40
2018-12-23T08:22:50.531Z,11.50
2018-12-23T08:25:16.788Z,11.50
2018-12-23T08:27:43.012Z,11.50
2018-12-23T08:30:09.314Z,11.50
2018-12-23T08:32:36.507Z,11.50
2018-12-23T08:35:02.788Z,11.50
2018-12-23T08:37:29.739Z,11.50
2018-12-23T08:39:55.967Z,11.50
2018-12-23T08:42:22.188Z,11.40
2018-12-23T08:44:49.214Z,11.40
2018-12-23T08:47:15.752Z,11.40
2018-12-23T08:49:42.798Z,11.50
2018-12-23T08:52:09.009Z,11.50
2018-12-23T08:54:36.861Z,11.60
2018-12-23T08:57:03.129Z,11.60
2018-12-23T08:59:30.132Z,11.70
2018-12-23T09:01:56.336Z,11.70
2018-12-23T09:04:23.354Z,11.90
2018-12-23T09:06:50.689Z,12.00
2018-12-23T09:09:16.899Z,12.00
2018-12-23T09:11:43.196Z,12.10
2018-12-23T09:14:09.479Z,12.10
2018-12-23T09:16:36.423Z,12.20
2018-12-23T09:19:03.424Z,12.20
2018-12-23T09:21:30.414Z,12.20
2018-12-23T09:23:57.384Z,12.30
2018-12-23T09:26:23.588Z,12.30
2018-12-23T09:28:50.557Z,12.30
2018-12-23T09:31:16.788Z,12.30
2018-12-23T09:33:43.025Z,12.20
2018-12-23T09:36:09.239Z,12.20
2018-12-23T09:38:35.495Z,12.20
2018-12-23T09:41:01.959Z,12.20
2018-12-23T09:43:28.776Z,12.10
2018-12-23T09:45:55.040Z,12.30
2018-12-23T09:48:21.329Z,12.40
2018-12-23T09:50:47.574Z,12.40
2018-12-23T09:53:13.884Z,12.40
2018-12-23T09:55:40.893Z,12.40
2018-12-23T09:58:07.141Z,12.30
2018-12-23T10:00:33.832Z,12.40
2018-12-23T10:03:00.815Z,12.50
2018-12-23T10:05:27.037Z,12.50
2018-12-23T10:07:53.343Z,12.60
2018-12-23T10:10:28.079Z,12.70
2018-12-23T10:12:45.861Z,12.60
2018-12-23T10:15:12.188Z,12.50
2018-12-23T10:17:39.191Z,12.60
2018-12-23T10:20:05.458Z,12.60
2018-12-23T10:22:31.688Z,12.60
2018-12-23T10:24:58.024Z,12.70
2018-12-23T10:27:24.277Z,12.60
2018-12-23T10:29:50.620Z,12.60
2018-12-23T10:32:16.950Z,12.70
2018-12-23T10:34:43.199Z,12.60
2018-12-23T10:37:09.427Z,12.50
2018-12-23T10:39:35.758Z,12.50
2018-12-23T10:42:02.013Z,12.60
2018-12-23T10:44:28.377Z,12.60
2018-12-23T10:46:54.616Z,12.70
2018-12-23T10:49:21.618Z,12.70
2018-12-23T10:51:47.866Z,12.70
2018-12-23T10:54:14.124Z,12.70
2018-12-23T10:56:41.104Z,12.60
2018-12-23T10:59:07.356Z,12.60
2018-12-23T11:01:33.640Z,12.50
2018-12-23T11:03:59.951Z,12.70
2018-12-23T11:06:26.987Z,12.70
2018-12-23T11:08:53.332Z,12.60
2018-12-23T11:11:20.324Z,12.70
2018-12-23T11:13:46.560Z,12.70
2018-12-23T11:16:12.839Z,12.70
2018-12-23T11:18:39.680Z,12.60
2018-12-23T11:21:05.918Z,12.60
2018-12-23T11:23:32.160Z,12.60
2018-12-23T11:25:58.411Z,12.50
2018-12-23T11:28:24.670Z,12.60
2018-12-23T11:30:51.705Z,12.50
2018-12-23T11:33:25.688Z,12.50
2018-12-23T11:35:57.994Z,12.50
2018-12-23T11:38:35.515Z,12.50
2018-12-23T11:41:03.504Z,12.50
2018-12-23T11:43:35.799Z,12.50
2018-12-23T11:46:08.124Z,12.40
2018-12-23T11:48:41.311Z,12.40
2018-12-23T11:51:13.789Z,12.40
2018-12-23T11:53:46.125Z,12.50
2018-12-23T11:56:19.290Z,12.30
2018-12-23T11:58:52.520Z,12.30
2018-12-23T12:01:24.911Z,12.30
2018-12-23T12:03:58.235Z,12.40
2018-12-23T12:06:31.379Z,12.30
2018-12-23T12:09:07.040Z,12.30
2018-12-23T12:11:36.225Z,12.30
2018-12-23T12:14:08.607Z,12.20
2018-12-23T12:16:41.600Z,12.20
2018-12-23T12:19:15.125Z,12.10
2018-12-23T12:21:47.986Z,12.10
2018-12-23T12:24:20.353Z,12.10
2018-12-23T12:26:52.801Z,12.20
2018-12-23T12:29:25.238Z,12.20
2018-12-23T12:31:57.648Z,12.20
2018-12-23T12:34:31.001Z,12.20
2018-12-23T12:37:03.988Z,12.20
2018-12-23T12:39:36.972Z,12.20
2018-12-23T12:42:09.540Z,12.20
2018-12-23T12:44:42.183Z,12.10
2018-12-23T12:47:14.520Z,12.20
2018-12-23T12:49:47.662Z,12.20
2018-12-23T12:52:20.522Z,12.10
2018-12-23T12:54:52.971Z,12.10
2018-12-23T12:57:25.326Z,12.20
2018-12-23T12:59:57.731Z,12.10
2018-12-23T13:02:30.135Z,12.00
2018-12-23T13:05:02.617Z,12.00
2018-12-23T13:07:35.241Z,12.10
2018-12-23T13:10:08.476Z,12.00
2018-12-23T13:12:40.957Z,12.00
2018-12-23T13:15:13.615Z,11.90
2018-12-23T13:17:45.920Z,12.00
2018-12-23T13:20:18.643Z,12.00
2018-12-23T13:22:51.075Z,11.90
2018-12-23T13:25:23.683Z,11.80
2018-12-23T13:27:56.172Z,11.80
2018-12-23T13:30:28.708Z,11.70
2018-12-23T13:33:01.416Z,11.70
2018-12-23T13:35:34.756Z,11.80
2018-12-23T13:38:08.040Z,11.80
2018-12-23T13:40:43.351Z,11.80
2018-12-23T13:43:16.943Z,11.80
2018-12-23T13:45:50.346Z,11.90
2018-12-23T13:48:31.532Z,11.80
2018-12-23T13:51:12.204Z,11.80
2018-12-23T13:53:44.783Z,11.90
2018-12-23T13:59:34.661Z,12.10
2018-12-23T14:02:10.211Z,11.80
2018-12-23T14:07:51.469Z,11.90
2018-12-23T14:13:20.455Z,11.40
2018-12-23T14:15:53.231Z,11.40
2018-12-23T14:18:26.409Z,11.60
2018-12-23T14:20:59.045Z,11.60
2018-12-23T14:23:31.670Z,11.70
2018-12-23T14:26:04.457Z,11.70
2018-12-23T14:28:36.928Z,11.80
2018-12-23T14:31:10.588Z,11.90
2018-12-23T14:33:43.257Z,11.80
2018-12-23T14:36:15.764Z,11.80
2018-12-23T14:38:48.188Z,11.80
2018-12-23T14:41:20.892Z,11.70
2018-12-23T14:43:53.716Z,11.60
2018-12-23T14:46:26.215Z,11.60
2018-12-23T14:48:58.632Z,11.50
2018-12-23T14:51:31.395Z,11.40
2018-12-23T14:54:03.808Z,11.50
2018-12-23T14:56:36.415Z,11.50
2018-12-23T14:59:09.105Z,11.60
2018-12-23T15:01:41.860Z,11.70
2018-12-23T15:04:14.411Z,11.80
2018-12-23T15:06:46.868Z,11.80
2018-12-23T15:09:19.636Z,11.70
2018-12-23T15:11:52.052Z,11.70
2018-12-23T15:14:24.634Z,11.70
2018-12-23T15:16:57.997Z,11.90
2018-12-23T15:19:31.292Z,11.80
2018-12-23T15:22:04.420Z,11.80
2018-12-23T15:24:37.022Z,11.70
2018-12-23T15:27:09.496Z,11.90
2018-12-23T15:29:42.011Z,11.80
2018-12-23T15:32:14.520Z,11.90
2018-12-23T15:34:47.315Z,11.90
2018-12-23T15:37:19.983Z,11.90
2018-12-23T15:39:52.507Z,11.90
2018-12-23T15:42:25.296Z,11.80
2018-12-23T15:44:58.565Z,11.80
2018-12-23T15:47:31.216Z,11.80
2018-12-23T15:50:03.851Z,11.90
2018-12-23T15:52:36.376Z,12.00
2018-12-23T15:55:09.127Z,11.80
2018-12-23T15:57:41.379Z,11.90
2018-12-23T16:00:13.792Z,11.80
2018-12-23T16:02:46.289Z,11.80
2018-12-23T16:05:18.844Z,11.90
2018-12-23T16:07:51.332Z,12.10
2018-12-23T16:10:24.602Z,12.20
2018-12-23T16:12:57.133Z,12.20
2018-12-23T16:15:30.563Z,12.10
2018-12-23T16:18:03.373Z,12.10
2018-12-23T16:20:36.597Z,12.10
2018-12-23T16:23:08.176Z,12.00
2018-12-23T16:25:40.689Z,12.10
2018-12-23T16:28:14.138Z,12.10
2018-12-23T16:30:46.852Z,12.10
2018-12-23T16:33:19.533Z,12.20
2018-12-23T16:35:52.724Z,12.30
2018-12-23T16:38:25.477Z,12.30
2018-12-23T16:40:57.972Z,12.20
2018-12-23T16:43:30.548Z,12.10
2018-12-23T16:46:03.859Z,12.00
2018-12-23T16:48:36.664Z,12.00
2018-12-23T16:51:08.935Z,12.00
2018-12-23T16:53:41.777Z,12.00
2018-12-23T16:56:14.254Z,12.10
2018-12-23T16:58:46.612Z,12.20
2018-12-23T17:01:19.230Z,12.20
2018-12-23T17:03:51.631Z,12.20
2018-12-23T17:06:25.867Z,12.10
2018-12-23T17:08:58.420Z,12.20
2018-12-23T17:11:31.977Z,12.30
2018-12-23T17:14:04.632Z,12.30
2018-12-23T17:16:37.231Z,12.30
2018-12-23T17:19:09.702Z,12.20
2018-12-23T17:21:43.898Z,12.20
2018-12-23T17:24:16.823Z,12.20
2018-12-23T17:26:49.560Z,12.20
2018-12-23T17:29:22.172Z,12.10
2018-12-23T17:31:54.755Z,12.20
2018-12-23T17:34:27.928Z,12.30
2018-12-23T17:37:01.536Z,12.30
2018-12-23T17:39:34.464Z,12.30
2018-12-23T17:42:07.158Z,12.40
2018-12-23T17:44:39.980Z,12.40
2018-12-23T17:47:12.420Z,12.30
2018-12-23T17:49:45.046Z,12.20
2018-12-23T17:52:23.150Z,12.20
2018-12-23T17:54:50.122Z,12.30
2018-12-23T17:57:24.706Z,12.30
2018-12-23T17:59:57.247Z,12.30
2018-12-23T18:02:30.032Z,12.40
2018-12-23T18:05:02.960Z,12.40
2018-12-23T18:07:35.560Z,12.30
2018-12-23T18:10:08.988Z,12.40
2018-12-23T18:12:41.708Z,12.40
2018-12-23T18:15:14.307Z,12.50
2018-12-23T18:17:47.802Z,12.50
2018-12-23T18:20:20.616Z,12.50
2018-12-23T18:22:53.418Z,12.50
2018-12-23T18:25:25.989Z,12.50
2018-12-23T18:27:58.554Z,12.50
2018-12-23T18:30:31.035Z,12.60
2018-12-23T18:33:03.664Z,12.60
2018-12-23T18:35:36.752Z,12.60
2018-12-23T18:38:09.379Z,12.60
2018-12-23T18:40:42.835Z,12.60
2018-12-23T18:43:15.653Z,12.60
2018-12-23T18:45:49.279Z,12.60
2018-12-23T18:48:22.796Z,12.70
2018-12-23T18:50:55.406Z,12.70
2018-12-23T18:53:28.088Z,12.70
2018-12-23T18:56:00.585Z,12.70
2018-12-23T18:58:34.121Z,12.80
2018-12-23T19:01:06.571Z,12.80
2018-12-23T19:03:38.888Z,12.90
2018-12-23T19:06:11.408Z,12.90
2018-12-23T19:08:43.968Z,12.90
2018-12-23T19:11:29.417Z,12.80
2018-12-23T19:14:11.250Z,12.90
2018-12-23T19:16:54.414Z,13.00
2018-12-23T19:19:52.327Z,13.00
2018-12-23T19:22:22.455Z,13.00
2018-12-23T19:25:24.403Z,12.90
2018-12-23T19:27:50.900Z,12.90
2018-12-23T19:30:24.751Z,12.80
2018-12-23T19:32:56.596Z,12.80
2018-12-23T19:35:41.089Z,12.80
2018-12-23T19:38:24.292Z,12.80
2018-12-23T19:41:03.036Z,12.80
2018-12-23T19:43:37.249Z,12.80
2018-12-23T19:49:21.611Z,13.00
2018-12-23T19:52:10.393Z,13.00
2018-12-23T19:55:00.150Z,13.10
2018-12-23T19:57:33.624Z,13.10
2018-12-23T19:59:59.883Z,13.20
2018-12-23T20:02:39.800Z,13.20
2018-12-23T20:05:27.040Z,13.20
2018-12-23T20:07:56.284Z,13.20
2018-12-23T20:13:41.085Z,13.40
2018-12-23T20:19:09.560Z,13.40
2018-12-23T20:21:58.853Z,13.40
2018-12-23T20:24:25.961Z,13.50
2018-12-23T20:30:21.332Z,13.40
2018-12-23T20:36:23.756Z,13.40
2018-12-23T20:39:09.104Z,13.10
2018-12-23T20:41:57.235Z,13.30
2018-12-23T20:47:38.999Z,13.30
2018-12-23T20:50:09.053Z,13.30
2018-12-23T20:52:45.292Z,13.40
2018-12-23T20:55:20.421Z,13.40
2018-12-23T20:58:05.440Z,13.40
2018-12-23T21:00:40.853Z,13.50
2018-12-23T21:06:21.826Z,13.60
2018-12-23T21:09:09.156Z,13.50
2018-12-23T21:11:43.228Z,13.60
2018-12-23T21:14:12.221Z,13.60
2018-12-23T21:17:07.014Z,13.60
2018-12-23T21:19:45.525Z,13.60
2018-12-23T21:22:21.421Z,13.70
2018-12-23T21:24:51.387Z,13.60
2018-12-23T21:27:20.576Z,13.60
2018-12-23T21:30:02.845Z,13.60
2018-12-23T21:32:50.828Z,13.70
2018-12-23T21:35:33.759Z,13.70
2018-12-23T21:38:18.592Z,13.70
2018-12-23T21:40:53.072Z,13.70
2018-12-23T21:46:32.076Z,13.70
2018-12-23T21:52:07.479Z,14.00
2018-12-23T21:57:59.181Z,14.00
2018-12-23T22:00:41.440Z,13.90
2018-12-23T22:03:15.081Z,13.90
2018-12-23T22:06:05.031Z,13.90
2018-12-23T22:08:47.349Z,14.00
2018-12-23T22:11:33.257Z,13.90
2018-12-23T22:13:55.952Z,13.90
2018-12-23T22:16:22.942Z,13.80
2018-12-23T22:18:49.182Z,13.80
2018-12-23T22:21:15.436Z,13.80
2018-12-23T22:23:41.681Z,13.90
2018-12-23T22:26:08.643Z,13.90
2018-12-23T22:28:34.868Z,13.80
2018-12-23T22:31:01.124Z,13.90
2018-12-23T22:33:27.365Z,14.00
2018-12-23T22:35:54.253Z,14.00
2018-12-23T22:38:20.501Z,14.10
2018-12-23T22:40:46.731Z,14.00
2018-12-23T22:43:12.959Z,13.90
2018-12-23T22:45:40.078Z,13.90
2018-12-23T22:48:07.040Z,13.80
2018-12-23T22:50:34.031Z,13.80
2018-12-23T22:53:00.536Z,13.90
2018-12-23T22:55:26.776Z,13.90
2018-12-23T22:57:52.977Z,13.90
2018-12-23T23:00:19.277Z,13.90
2018-12-23T23:02:46.091Z,14.00
2018-12-23T23:05:12.335Z,14.00
2018-12-23T23:07:38.569Z,14.00
2018-12-23T23:10:05.570Z,14.00
2018-12-23T23:12:32.337Z,14.10
2018-12-23T23:14:58.651Z,14.00
2018-12-23T23:17:24.903Z,13.90
2018-12-23T23:19:51.135Z,14.00
2018-12-23T23:22:18.136Z,13.90
2018-12-23T23:24:44.377Z,13.90
2018-12-23T23:27:11.431Z,13.90
2018-12-23T23:29:37.684Z,13.90
2018-12-23T23:32:03.931Z,14.00
2018-12-23T23:34:31.182Z,14.00
2018-12-23T23:36:58.175Z,13.90
2018-12-23T23:39:24.415Z,13.90
2018-12-23T23:41:58.133Z,13.90
2018-12-23T23:44:17.660Z,14.00
2018-12-23T23:46:43.933Z,14.00
2018-12-23T23:49:10.160Z,14.00
2018-12-23T23:51:36.393Z,14.00
2018-12-23T23:54:02.659Z,14.00
2018-12-23T23:56:28.884Z,14.00
